Terminal Aerodrome Forecast
Issued by NWS

Home | Current Version | Previous Version | Graphics & Text | Print | Product List | Glossary On
Versions: 1 2 3 4 5 6 7 8 9 10 11 12 13 14 15 16
000
FTUS43 KOAX 230520
TAFCDR
TAF
KCDR 230520Z 2306/2406 18005KT P6SM OVC080
     FM231800 VRB05KT P6SM OVC050
     FM240000 03005KT 5SM -SHSN SCT007 OVC015=

USA.gov is the U.S. government's official web portal to all federal, state and local government web resources and services.